Rafsanjan, ایران

03:06 PM IRDT on آوریل 01, 2015 (GMT +0430)
Kerman | | Change Station
CLOSE
Current Station
Airport
Location: Kerman,
Elevation: 5755 ft
Nearby Weather Stations

Elev 5755 ft 30.25 °N, 56.97 °E | Updated 36 minutes ago

Mostly Cloudy
بیشتر ابری
70 °F
Feels Like 70 °F
N
12
باد متغير باد from غرب

امروز
High -- | Low -- °F
--% Chance of Precip.
دیروز
High -- | Low -- °F
Precip. -- در
6:35 AM 7:04 PM
Waxing Gibbous, 92% visible
فشار 29.95 در
ديد 6.2 مايل، ميل (در برابر كيلومتر
ابری Few 4000 ft
ابرهای پراکنده 10000 ft
بیشتر ابری 19000 ft
قطره شبنم 23 °F
رطوبت 17%
بارش باران 0.00 در
برف عمیق Not available.
مادون قرمز 4 out of 12
Pollen Not available.
تمیزی هوا Not available.
Flu Activity Not available.
METAR OIKK 011000Z 26010KT 9999 FEW040 SCT100 BKN190 21/M05 Q1014 A2995

More Conditions Fewer Conditions

فشار 29.95 در
ديد 6.2 مايل، ميل (در برابر كيلومتر
ابری Few 4000 ft
ابرهای پراکنده 10000 ft
بیشتر ابری 19000 ft
قطره شبنم 23 °F
رطوبت 17%
بارش باران 0.00 در
برف عمیق Not available.
مادون قرمز 4 out of 12
Pollen Not available.
تمیزی هوا Not available.
Flu Activity Not available.
METAR OIKK 011000Z 26010KT 9999 FEW040 SCT100 BKN190 21/M05 Q1014 A2995

More Conditions Fewer Conditions

10-Day Weather Forecast

Almanac

ستاره شناسی

Apr. 01, 2015 Rise Set
وقت حقیقی
تاریک و روشن اجتماعی
تاریک روشن دریایی
شفق و فلق نجومی
ماه
میزان روشنایی روز
طول روز
Tomorrow will be .
, % of the Moon is Illuminated

Today's Extremes

Country Highs Country Lows

Community

WunderPhotos

Upload Photos

1,809,934 photos uploaded!

WunderBlogs® & News

Nearby

تمیزی هوا

  تمیزی هوا AQ Index آلاینده
Not available.

عمق برف

Station Depth Elevation

Earthquake Activity

شهر Distance Mag. Time & Date
Minimum magnitude displayed is 2.5.

Coastal Water Temperatures

منطقه درجه حرارت

Stations

Nearby Weather Stations

Station Location دما باد سرد قطره شبنم رطوبت باد Precip. Elev ارتقا دادن Type